Harrisonville, NJ (08039)

3:44 AM EST on December 25, 2014 (GMT -0500)
Mullica Hill | Change Station
CLOSE
Current Station
Personal Weather Station
Location: Harrison Township, NJ
Elevation: 79 ft
Nearby Weather Stations
Active Advisory: Special Statement Active Notice: Record Report

Elev 79 ft 39.74 °N, 75.26 °W | Updated 11 minutes ago

Rain
Rain
58.3 °F
Feels Like 58.3 °F
N
4.7
Wind Variable Wind from NW

Today
High -- | Low -- °F
--% Chance of Precip.
Yesterday
High -- | Low -- °F
Precip. -- in
7:20 AM 4:42 PM
Waxing Crescent, 14% visible
Pressure 29.59 in
Visibility 10.0 miles
Clouds Scattered Clouds 1900 ft
Mostly Cloudy 3200 ft
Overcast 10000 ft
Dew Point 55 °F
Humidity 89%
Rainfall 0.05 in
Snow Depth Not available.
UV 0 out of 12
Pollen .10 out of 12
Air Quality Not available.
Flu Activity Not available.
SPECI KPHL 250813Z 27012KT 10SM SCT019 BKN032 OVC100 16/11 A2959 RMK AO2 RAB0756E08 P0000 T01610111

More Conditions Fewer Conditions

Pressure 29.59 in
Visibility 10.0 miles
Clouds Scattered Clouds 1900 ft
Mostly Cloudy 3200 ft
Overcast 10000 ft
Dew Point 55 °F
Humidity 89%
Rainfall 0.05 in
Snow Depth Not available.
UV 0 out of 12
Pollen .10 out of 12
Air Quality Not available.
Flu Activity Not available.
SPECI KPHL 250813Z 27012KT 10SM SCT019 BKN032 OVC100 16/11 A2959 RMK AO2 RAB0756E08 P0000 T01610111

More Conditions Fewer Conditions

Nowcast | as of 2:06 am EST on December 25, 2014

Between now and 5 am, a cold front will clear most of the region. As it moves through, gusty west winds will occur with peak gusts reaching between 30 and 40 mph. Motorists and tractor trailer drivers are advised to be alert for an increase in winds, especially while crossing bridges and overpasses. In addition, an area of rain will be moving through the region and cause some ponding in poor drainage areas.

×

10-Day Weather Forecast

Almanac

Astronomy

Dec. 25, 2014 Rise Set
Actual Time
Civil Twilight
Nautical Twilight
Astronomical Twilight
Moon
Length of Visible Light
Length of Day
Tomorrow will be .
, % of the Moon is Illuminated

Today's Extremes

State Highs State Lows

Community

WunderPhotos

Upload Photos

1,780,250 photos uploaded!

WunderBlogs® & News

Nearby

Air Quality

  Air Quality AQ Index Pollutant
Not available.

Snow Depth

Station Depth Elevation

Earthquake Activity

City Distance Mag. Time & Date
Minimum magnitude displayed is 2.5.

Coastal Water Temperatures

Place Temperature

Nearby Weather Stations